Duluth International Airport
KDLH : now visible

Airfield :











YOU CAN JOIN US ON...

 
LOGIN :

Register | Disclaimer

   EN    FR    IT 

 









Legend :    VFR   Marginal VFR   IFR   Intensive IFR   Very Intensive IFR
Visi :
Ceiling :
>= 8 km
>= 3000ft
5 to 8 km
1000 to 3000 ft
1500m to 5 km
500 to 1000 ft
800 to 1500m
200 to 500 ft
< 800m
< 200 ft
Symbols :   Thunderstorms  Fog  Heavy snow  Heavy precipitations  Wind > 20 kt






- Airport Elevation : 1428 ft
- IATA code : DLH


KDLH - Duluth International

CURRENT METAR :
  • 230155Z 02010KT 1SM R09/P6000FT -SN BR SCT006 OVC016 00/M02 A3019 RMK AO2 SLP244 P0004 T00001017

EXPIRED METARs :
  • 230137Z 02009KT 1SM R09/P6000FT -SN BR SCT006 OVC014 00/M02 A3019 RMK AO2 P0003 T00001017
  • 230055Z 02010KT 1SM R09/P6000FT -SN BR BKN006 BKN010 OVC015 00/M02 A3019 RMK AO2 SLP243 P0003 T00001017
  • 230005Z 04008KT 1SM R09/P6000FT -SN BR BKN007 OVC019 00/M02 A3019 RMK AO2 P0000 T00001017
  • 222355Z 03007KT 1SM R09/P6000FT -SN BR SCT007 OVC021 00/M02 A3019 RMK AO2 SLP246 P0004 60021 T00001017 10011 20000 53007
  • 222341Z 03009KT 1SM R09/P6000FT -SN BR BKN006 OVC021 00/M02 A3019 RMK AO2 P0003 T00001017
  • 222328Z 03008KT 1SM R09/P6000FT -SN BR BKN006 OVC019 00/M02 A3019 RMK AO2 P0003 T00001017
  • 222313Z 03008KT 1SM R09/P6000FT -SN BR SCT007 OVC015 00/M02 A3018 RMK AO2 SFC VIS 1 1/4 P0002 T00001017

TAF KDLH
Valid from the 23 at 00:00 until the 24 at 00:00 UTC


222327Z 2300/2324 04012KT 1/2SM SN OVC007
TEMPO 2300/2301 1 1/2SM -SN SCT007 OVC015
FM230300 02011KT 1 1/2SM -SN OVC009
FM230500 01011G17KT 3SM -SN OVC015
FM230800 36010KT P6SM OVC025
FM231500 33010G16KT P6SM BKN035
FM232100 31009KT P6SM BKN040
KZMP FIR / North America



MET'MAP, your aeronautical weather chart ! - Copyright ORBIFLY December 2007 - Disclaimer

ORBIFLY MET'MAP TEAM :

Programming & Development : Alexandra Zaïnal
Concept & original design : Baudouin d'Aumeries
Assistance for programming : Marc-Olivier Méhu
Technical & hardware support : Manuel Goepfert

Contact : metmap@orbifly.com




SOURCES & CREDITS :

   NOAA       Earth
Advisory